Terminal Aerodrome Forecast
Issued by NWS Upton, NY

Current Version | Previous Version | Text Only | Print | Product List | Glossary On
Versions: 1 2 3 4 5 6 7 8 9 10 11 12 13 14 15 16 17 18 19 20 21 22 23 24
974 FTUS41 KOKX 142031 AAA TAFISP TAF AMD KISP 142031Z 1421/1518 31010KT P6SM SKC FM142300 VRB04KT P6SM SCT250 FM151400 10007KT 2SM -SN BKN012=

USA.gov is the U.S. government's official web portal to all federal, state and local government web resources and services.